Time;durP1;ratioP1;P1;durP2;ratioP2;P2;SDS_P1;SDS_P2;PMS_P1;PMS_P2;Temp;Humidity;BMP_temperature;BMP_pressure;BME280_temperature;BME280_humidity;BME280_pressure;Samples;Min_cycle;Max_cycle;Signal;HPM_P1;HPM_P2
2023/07/15 00:01:19;;;;;;;5.10;4.50;;;24.00;58.80;;;26.43;39.70;100671.69;5051897;28;20281;-56
2023/07/15 00:03:47;;;;;;;4.37;3.80;;;24.00;59.00;;;26.42;39.33;100678.16;5052963;28;20186;-59
2023/07/15 00:06:16;;;;;;;4.43;4.03;;;24.00;58.80;;;26.41;39.94;100662.25;5052892;28;20194;-58
2023/07/15 00:08:44;;;;;;;5.93;5.13;;;24.00;59.50;;;26.41;40.11;100656.84;5052501;28;20253;-57
2023/07/15 00:11:25;;;;;;;5.93;4.47;;;23.90;58.90;;;26.38;39.60;100658.22;5047586;28;20222;-59
2023/07/15 00:13:52;;;;;;;5.93;3.93;;;23.90;58.90;;;26.33;39.96;100660.13;5034724;28;20260;-58
2023/07/15 00:16:19;;;;;;;6.03;4.33;;;23.90;58.90;;;26.26;40.00;100655.06;5050681;28;20194;-60
2023/07/15 00:18:47;;;;;;;4.20;3.80;;;23.90;58.90;;;26.25;40.35;100652.63;5055933;28;20197;-59
2023/07/15 00:21:20;;;;;;;7.27;4.33;;;23.80;59.00;;;26.22;39.71;100654.00;5056207;28;20201;-58
2023/07/15 00:23:52;;;;;;;6.97;3.90;;;23.80;59.10;;;26.21;40.00;100652.38;5056200;28;20189;-55
2023/07/15 00:26:22;;;;;;;5.73;3.93;;;23.70;58.90;;;26.16;39.77;100649.72;5056133;28;20174;-58
2023/07/15 00:28:50;;;;;;;5.57;3.70;;;23.80;59.10;;;26.15;40.13;100632.72;5055752;28;20237;-59
2023/07/15 00:31:19;;;;;;;4.57;4.03;;;23.80;59.20;;;26.11;39.91;100633.56;5051113;28;20585;-58
2023/07/15 00:33:48;;;;;;;3.97;3.57;;;23.70;59.10;;;26.06;40.43;100633.56;5035977;28;20725;-57
2023/07/15 00:36:16;;;;;;;6.47;3.97;;;23.70;59.80;;;26.06;40.07;100633.56;5035704;28;20191;-58
2023/07/15 00:38:44;;;;;;;8.07;4.30;;;23.70;59.30;;;26.04;40.57;100630.34;5035813;28;20190;-55
2023/07/15 00:41:17;;;;;;;6.83;3.57;;;23.60;59.10;;;26.01;40.00;100622.78;5045172;28;20198;-59
2023/07/15 00:43:56;;;;;;;4.97;3.73;;;23.70;59.20;;;26.02;40.05;100617.13;5053838;28;20281;-57
2023/07/15 00:47:12;;;;;;;4.67;4.00;;;23.70;59.40;;;26.02;40.15;100625.22;5056032;28;20197;-57
2023/07/15 00:49:41;;;;;;;7.40;4.33;;;23.70;59.40;;;26.08;40.35;100615.19;5055414;28;20218;-59
2023/07/15 00:52:13;;;;;;;4.90;4.40;;;23.70;59.20;;;26.04;40.13;100614.13;5054813;28;20209;-57
2023/07/15 00:54:42;;;;;;;4.23;3.83;;;23.60;59.00;;;25.99;40.06;100611.47;5055491;28;20224;-59
2023/07/15 00:57:11;;;;;;;6.00;3.83;;;23.60;59.10;;;26.00;40.56;100613.91;5055398;28;20213;-59
2023/07/15 00:59:40;;;;;;;5.57;4.23;;;23.60;59.00;;;25.94;40.08;100603.41;5054836;28;20569;-58
2023/07/15 01:02:10;;;;;;;4.90;3.93;;;23.60;59.00;;;25.92;40.56;100600.19;5043975;28;20214;-59
2023/07/15 01:04:37;;;;;;;5.20;3.80;;;23.60;58.90;;;25.95;39.85;100594.25;5035579;28;20194;-55
2023/07/15 01:07:07;;;;;;;7.17;3.67;;;23.60;58.90;;;25.95;39.94;100583.44;5035689;28;20655;-58
2023/07/15 01:09:35;;;;;;;3.80;3.50;;;23.60;58.90;;;25.96;40.13;100585.84;5035419;28;20352;-59
2023/07/15 01:12:02;;;;;;;4.87;3.60;;;23.60;58.90;;;25.93;39.78;100580.22;5045702;28;20604;-59
2023/07/15 01:14:30;;;;;;;3.90;3.50;;;23.60;58.70;;;25.94;40.27;100581.81;5055260;28;20280;-60
2023/07/15 01:16:57;;;;;;;4.23;3.80;;;23.50;58.60;;;25.94;40.25;100571.03;5055447;28;20247;-59
2023/07/15 01:19:27;;;;;;;4.20;3.70;;;23.60;58.70;;;25.91;40.44;100572.41;5055356;28;20234;-59
2023/07/15 01:21:54;;;;;;;3.97;3.67;;;23.60;58.80;;;25.91;39.81;100574.31;5054329;28;20190;-58
2023/07/15 01:24:25;;;;;;;4.53;3.70;;;23.50;58.70;;;25.86;40.43;100574.34;5054472;28;20278;-58
2023/07/15 01:26:57;;;;;;;4.77;3.90;;;23.50;58.70;;;25.86;40.44;100568.94;5035869;28;20210;-58
2023/07/15 01:29:24;;;;;;;5.27;3.93;;;23.50;58.70;;;25.89;40.35;100568.38;5034578;28;20280;-59
2023/07/15 01:31:51;;;;;;;4.70;3.43;;;23.50;58.80;;;25.85;39.85;100556.53;5043174;28;20669;-59
2023/07/15 01:34:19;;;;;;;4.90;4.20;;;23.50;58.80;;;25.82;40.40;100557.88;5054801;28;20194;-60
2023/07/15 01:36:48;;;;;;;5.47;3.77;;;23.40;58.60;;;25.79;39.83;100550.38;5054736;28;20193;-59
2023/07/15 01:39:15;;;;;;;4.33;3.50;;;23.40;58.60;;;25.75;40.29;100554.69;5054328;28;20217;-58
2023/07/15 01:41:44;;;;;;;4.67;3.70;;;23.40;58.50;;;25.72;39.88;100551.78;5054016;28;20228;-59
2023/07/15 01:44:12;;;;;;;5.67;4.17;;;23.40;58.70;;;25.73;40.63;100547.97;5052591;28;20650;-58
2023/07/15 01:46:40;;;;;;;4.67;3.80;;;23.40;58.80;;;25.69;40.63;100542.34;5054960;28;20276;-56
2023/07/15 01:49:07;;;;;;;5.07;3.50;;;23.40;58.80;;;25.71;39.98;100544.75;5054167;28;20312;-58
2023/07/15 01:51:35;;;;;;;5.63;3.93;;;23.40;58.90;;;25.71;40.50;100533.97;5048979;28;20273;-57
2023/07/15 01:54:03;;;;;;;4.43;3.70;;;23.30;58.80;;;25.66;40.63;100542.09;5035439;28;20576;-58
2023/07/15 01:56:30;;;;;;;7.60;4.40;;;23.30;58.80;;;25.55;40.60;100528.66;5034606;28;20190;-59
2023/07/15 01:58:58;;;;;;;5.87;3.80;;;23.30;58.80;;;25.53;40.92;100528.13;5033966;28;20622;-59
2023/07/15 02:01:26;;;;;;;5.63;3.83;;;23.30;59.00;;;25.51;40.14;100524.91;5037923;28;20193;-58
2023/07/15 02:03:53;;;;;;;5.73;4.20;;;23.20;59.00;;;25.50;40.28;100517.91;5054256;28;20186;-57
2023/07/15 02:06:22;;;;;;;5.07;3.80;;;23.20;59.20;;;25.49;41.01;100521.69;5054622;28;20201;-57
2023/07/15 02:08:49;;;;;;;6.30;3.37;;;23.20;59.20;;;25.43;41.10;100524.66;5054089;28;20233;-58
2023/07/15 02:11:16;;;;;;;4.13;3.43;;;23.10;59.20;;;25.47;40.24;100517.66;5040742;28;20948;-58
2023/07/15 02:13:43;;;;;;;6.43;3.80;;;23.10;59.20;;;25.49;41.05;100505.50;5034774;28;20226;-56
2023/07/15 02:16:12;;;;;;;5.03;3.80;;;23.10;59.50;;;25.45;40.84;100504.47;5047455;28;20286;-58
2023/07/15 02:18:39;;;;;;;4.63;3.93;;;23.10;59.30;;;25.44;40.65;100500.16;5053601;28;20186;-59
2023/07/15 02:21:06;;;;;;;4.73;3.40;;;23.10;59.30;;;25.44;40.67;100496.63;5054164;28;20220;-59
2023/07/15 02:23:34;;;;;;;5.53;3.90;;;23.10;59.40;;;25.45;40.42;100493.69;5053309;28;20892;-59
2023/07/15 02:26:01;;;;;;;6.20;4.00;;;23.00;59.50;;;25.42;40.98;100486.09;5054282;28;20272;-59
2023/07/15 02:28:28;;;;;;;5.63;3.40;;;23.00;59.40;;;25.42;40.45;100488.81;5054067;28;20214;-60
2023/07/15 02:30:59;;;;;;;5.13;3.40;;;23.00;59.60;;;25.44;40.45;100492.06;5053905;28;20222;-60
2023/07/15 02:33:27;;;;;;;4.63;3.57;;;23.00;59.60;;;25.42;40.65;100490.69;5035780;28;20207;-59
2023/07/15 02:35:54;;;;;;;5.03;3.67;;;23.00;59.60;;;25.38;40.80;100487.75;5033019;28;20205;-59
2023/07/15 02:38:21;;;;;;;4.47;3.67;;;23.00;59.70;;;25.38;41.32;100487.75;5033670;28;20186;-59
2023/07/15 02:40:49;;;;;;;6.60;4.20;;;22.90;59.80;;;25.38;41.28;100498.53;5050532;28;20232;-58
2023/07/15 02:43:16;;;;;;;3.97;3.57;;;22.90;59.90;;;25.33;41.05;100487.78;5052687;28;20586;-58
2023/07/15 02:45:45;;;;;;;4.03;3.63;;;22.90;60.00;;;25.30;41.38;100485.63;5053670;28;20220;-58
2023/07/15 02:48:12;;;;;;;4.90;4.10;;;22.90;60.10;;;25.27;40.78;100480.78;5053680;28;20288;-59
2023/07/15 02:50:41;;;;;;;4.57;4.00;;;22.80;60.00;;;25.25;41.55;100471.38;5053121;28;20209;-59
2023/07/15 02:53:08;;;;;;;4.10;3.70;;;22.80;60.20;;;25.18;41.83;100471.69;5053501;28;20276;-59
2023/07/15 02:55:35;;;;;;;3.87;3.50;;;22.80;60.50;;;25.17;41.37;100470.09;5046329;28;20229;-58
2023/07/15 02:58:02;;;;;;;5.93;4.07;;;22.70;60.40;;;25.16;41.93;100473.84;5033712;28;20201;-57
2023/07/15 03:00:29;;;;;;;6.67;4.07;;;22.70;60.50;;;25.14;41.68;100464.44;5033231;28;20657;-58
2023/07/15 03:02:56;;;;;;;4.80;3.73;;;22.70;60.80;;;25.10;41.31;100458.00;5044968;28;20197;-58
2023/07/15 03:05:23;;;;;;;4.60;3.80;;;22.70;60.90;;;25.04;41.60;100465.28;5053432;28;20225;-57
2023/07/15 03:07:51;;;;;;;3.97;3.50;;;22.60;61.10;;;24.95;41.72;100464.25;5053374;28;20197;-56
2023/07/15 03:10:18;;;;;;;4.97;3.73;;;22.60;61.10;;;24.82;42.04;100478.28;5053087;28;20216;-57
2023/07/15 03:12:49;;;;;;;6.33;3.90;;;22.50;61.20;;;24.80;42.61;100475.06;5043338;28;20194;-57
2023/07/15 03:15:17;;;;;;;4.63;3.27;;;22.50;61.50;;;24.75;42.53;100466.97;5038970;28;20195;-56
2023/07/15 03:17:44;;;;;;;3.93;3.53;;;22.40;61.60;;;24.76;42.65;100474.00;5053489;28;20272;-57
2023/07/15 03:20:19;;;;;;;5.20;3.70;;;22.40;61.80;;;24.75;42.34;100464.28;5052995;28;20219;-56
2023/07/15 03:22:47;;;;;;;5.33;4.40;;;22.40;61.90;;;24.74;42.15;100462.69;5052798;28;20273;-58
2023/07/15 03:25:16;;;;;;;4.40;3.83;;;22.40;62.10;;;24.76;42.72;100463.22;5053145;28;20193;-56
2023/07/15 03:27:44;;;;;;;4.73;4.23;;;22.30;62.10;;;24.77;42.68;100454.09;5052684;28;20205;-58
2023/07/15 03:30:12;;;;;;;6.40;4.10;;;22.30;62.30;;;24.74;42.25;100462.69;5053200;28;20236;-59
2023/07/15 03:32:41;;;;;;;3.77;3.27;;;22.30;62.30;;;24.74;43.01;100468.06;5044426;28;20200;-58
2023/07/15 03:35:09;;;;;;;7.43;4.10;;;22.30;62.30;;;24.69;42.54;100462.69;5032264;28;20190;-56
2023/07/15 03:37:38;;;;;;;5.67;3.37;;;22.30;62.60;;;24.69;42.49;100466.22;5033426;28;20655;-59
2023/07/15 03:40:08;;;;;;;3.80;3.40;;;22.30;62.50;;;24.68;42.88;100463.78;5044128;28;20600;-56
2023/07/15 03:42:36;;;;;;;3.83;3.37;;;22.30;62.80;;;24.71;42.70;100465.94;5052055;28;20296;-57
2023/07/15 03:45:05;;;;;;;5.07;3.37;;;22.30;62.80;;;24.67;42.58;100464.88;5033368;28;20612;-57
2023/07/15 03:47:35;;;;;;;6.73;3.80;;;22.20;62.80;;;24.64;42.85;100458.16;5035201;28;20669;-58
2023/07/15 03:50:04;;;;;;;4.30;3.43;;;22.20;62.80;;;24.62;42.67;100456.81;5036630;28;20218;-57
2023/07/15 03:52:31;;;;;;;3.63;3.30;;;22.20;63.00;;;24.60;42.96;100454.41;5043655;28;20196;-58
2023/07/15 03:54:58;;;;;;;4.00;3.60;;;22.20;63.10;;;24.60;43.28;100464.34;5053303;28;20199;-57
2023/07/15 03:57:26;;;;;;;6.23;3.80;;;22.10;63.20;;;24.57;43.17;100462.19;5037275;28;20201;-58
2023/07/15 03:59:54;;;;;;;3.83;3.00;;;22.10;63.20;;;24.51;43.65;100447.16;5036544;28;20575;-57
2023/07/15 04:02:22;;;;;;;5.73;3.77;;;22.10;63.40;;;24.48;43.24;100456.59;5042006;28;20192;-56
2023/07/15 04:04:49;;;;;;;4.87;3.47;;;22.10;63.50;;;24.48;43.93;100456.59;5056613;28;20189;-56
2023/07/15 04:07:16;;;;;;;4.20;3.47;;;22.10;63.70;;;24.48;43.79;100455.75;5056555;28;20278;-55
2023/07/15 04:09:43;;;;;;;4.70;3.57;;;22.10;64.00;;;24.40;43.81;100454.44;5055792;28;20313;-55
2023/07/15 04:12:10;;;;;;;6.00;4.30;;;22.00;64.00;;;24.39;44.03;100460.09;5052821;28;20237;-58
2023/07/15 04:14:37;;;;;;;4.20;3.20;;;22.00;64.30;;;24.37;43.96;100465.72;5036722;28;20278;-57
2023/07/15 04:17:05;;;;;;;5.40;3.07;;;22.00;64.30;;;24.40;43.94;100469.75;5056657;28;20277;-57
2023/07/15 04:19:32;;;;;;;5.07;3.37;;;22.00;64.70;;;24.41;44.03;100471.38;5056009;28;20212;-58
2023/07/15 04:21:59;;;;;;;3.97;3.57;;;22.00;64.70;;;24.43;44.30;100458.47;5055265;28;20225;-59
2023/07/15 04:24:26;;;;;;;4.17;2.87;;;22.00;64.90;;;24.47;43.85;100460.34;5056080;28;20194;-56
2023/07/15 04:26:53;;;;;;;4.97;3.27;;;22.00;64.90;;;24.51;44.05;100469.47;5055952;28;20551;-57
2023/07/15 04:29:20;;;;;;;4.50;3.57;;;22.00;65.00;;;24.53;44.20;100470.00;5055413;28;20309;-56
2023/07/15 04:31:47;;;;;;;4.27;2.97;;;22.00;64.80;;;24.53;43.62;100470.00;5055398;28;20189;-58
2023/07/15 04:34:16;;;;;;;3.80;3.37;;;22.00;64.90;;;24.54;43.82;100468.13;5036273;28;20213;-58
2023/07/15 04:36:43;;;;;;;4.40;3.73;;;22.00;64.80;;;24.55;44.10;100467.06;5035452;28;20194;-59
2023/07/15 04:39:10;;;;;;;6.47;3.67;;;22.00;64.80;;;24.55;44.02;100467.06;5039198;28;20300;-56
2023/07/15 04:41:37;;;;;;;5.97;3.40;;;22.00;64.80;;;24.59;43.89;100462.72;5055940;28;20280;-60
2023/07/15 04:44:04;;;;;;;3.97;3.30;;;22.00;64.80;;;24.57;43.65;100460.31;5051240;28;20202;-57
2023/07/15 04:46:31;;;;;;;4.47;3.50;;;22.00;64.80;;;24.57;43.50;100460.31;5055742;28;20196;-60
2023/07/15 04:48:58;;;;;;;5.90;3.77;;;22.00;64.90;;;24.57;43.99;100454.13;5055433;28;20221;-60
2023/07/15 04:51:26;;;;;;;3.57;3.20;;;22.00;65.00;;;24.56;43.94;100452.50;5055834;28;20200;-57
2023/07/15 04:53:54;;;;;;;3.43;3.10;;;22.10;65.10;;;24.55;44.48;100445.53;5054910;28;20193;-58
2023/07/15 04:56:21;;;;;;;3.33;2.87;;;22.10;65.20;;;24.56;43.84;100449.81;5041760;28;20194;-58
2023/07/15 04:58:48;;;;;;;3.30;2.97;;;22.10;65.20;;;24.53;44.13;100453.06;5034641;28;20237;-58
2023/07/15 05:01:15;;;;;;;5.70;3.07;;;22.10;65.20;;;24.55;44.31;100453.59;5035229;28;20294;-58
2023/07/15 05:03:42;;;;;;;5.47;3.40;;;22.10;65.20;;;24.57;44.06;100462.19;5049641;28;20220;-60
2023/07/15 05:06:10;;;;;;;4.57;3.33;;;22.10;65.30;;;24.60;44.09;100454.41;5055055;28;20659;-59
2023/07/15 05:08:38;;;;;;;5.67;3.50;;;22.10;65.30;;;24.64;43.93;100455.44;5054797;28;20558;-59
2023/07/15 05:11:05;;;;;;;6.23;3.37;;;22.10;65.40;;;24.65;44.13;100446.28;5054878;28;20628;-58
2023/07/15 05:13:32;;;;;;;3.83;2.87;;;22.10;65.30;;;24.68;44.34;100458.38;5041979;28;20209;-58
2023/07/15 05:15:59;;;;;;;3.47;2.80;;;22.10;65.40;;;24.70;44.07;100458.91;5047019;28;20190;-58
2023/07/15 05:18:26;;;;;;;3.27;2.93;;;22.20;65.40;;;24.73;43.88;100455.69;5054943;28;20285;-60
2023/07/15 05:20:54;;;;;;;6.43;3.37;;;22.20;65.40;;;24.81;43.96;100452.47;5055055;28;20210;-59
2023/07/15 05:23:22;;;;;;;4.90;3.20;;;22.20;65.40;;;24.91;44.34;100455.13;5054294;28;20282;-59
2023/07/15 05:25:51;;;;;;;5.63;3.00;;;22.30;65.40;;;25.01;43.94;100449.66;5055311;28;20276;-59
2023/07/15 05:28:18;;;;;;;3.60;2.83;;;22.40;65.40;;;25.09;43.29;100443.72;5054583;28;20190;-57
2023/07/15 05:30:45;;;;;;;4.43;3.17;;;22.40;65.20;;;25.15;43.78;100447.97;5054644;28;20221;-60
2023/07/15 05:33:12;;;;;;;3.43;2.97;;;22.50;64.80;;;25.22;43.17;100445.00;5045291;28;20707;-60
2023/07/15 05:35:39;;;;;;;4.57;3.23;;;22.60;64.80;;;25.27;43.17;100453.84;5040160;28;20194;-59
2023/07/15 05:38:06;;;;;;;3.47;2.77;;;22.60;64.30;;;25.31;42.81;100454.91;5055064;28;20194;-58
2023/07/15 05:40:33;;;;;;;3.47;3.07;;;22.70;64.40;;;25.38;42.71;100460.81;5054371;28;20268;-58
2023/07/15 05:43:01;;;;;;;6.83;3.30;;;22.70;65.10;;;25.42;42.71;100466.44;5053291;28;20550;-59
2023/07/15 05:45:28;;;;;;;4.10;3.00;;;22.80;64.30;;;25.43;43.31;100463.47;5054797;28;20216;-58
2023/07/15 05:47:55;;;;;;;3.33;2.67;;;22.80;64.10;;;25.51;43.16;100465.59;5054584;28;20198;-59
2023/07/15 05:50:23;;;;;;;4.30;3.07;;;22.90;64.10;;;25.56;43.19;100472.84;5054007;28;20225;-57
2023/07/15 05:52:50;;;;;;;3.40;3.10;;;22.90;63.90;;;25.62;42.59;100470.94;5044652;28;20217;-58
2023/07/15 05:55:18;;;;;;;3.87;3.00;;;23.00;64.00;;;25.63;42.41;100483.31;5054216;28;20186;-58
2023/07/15 05:57:45;;;;;;;2.60;2.40;;;23.00;63.80;;;25.70;42.91;100473.03;5054202;28;20472;-58
2023/07/15 06:00:15;;;;;;;5.13;2.80;;;23.10;63.90;;;25.82;42.49;100470.75;5053876;28;20252;-58
2023/07/15 06:02:42;;;;;;;5.77;2.67;;;23.20;64.90;;;25.89;42.38;100477.44;5049269;28;20225;-59
2023/07/15 06:05:10;;;;;;;3.63;2.90;;;23.20;64.00;;;25.94;42.21;100476.59;5034258;28;20222;-59
2023/07/15 06:07:37;;;;;;;4.20;2.80;;;23.30;64.00;;;26.04;43.10;100476.53;5034128;28;20240;-58
2023/07/15 06:10:05;;;;;;;3.57;3.00;;;23.40;64.20;;;26.11;42.38;100468.94;5033568;28;20222;-58
2023/07/15 06:12:32;;;;;;;3.67;3.00;;;23.50;64.10;;;26.20;42.91;100478.03;5036497;28;20221;-58
2023/07/15 06:14:59;;;;;;;3.97;3.17;;;23.60;64.10;;;26.30;42.10;100477.94;5054285;28;20218;-57
2023/07/15 06:17:27;;;;;;;3.80;2.63;;;23.60;63.90;;;26.40;41.90;100479.75;5054117;28;20198;-58
2023/07/15 06:19:55;;;;;;;2.63;2.33;;;23.70;63.70;;;26.49;41.96;100469.91;5053894;28;20670;-58
2023/07/15 06:22:22;;;;;;;2.83;2.50;;;23.80;63.50;;;26.60;42.22;100474.13;5052995;28;20566;-58
2023/07/15 06:24:49;;;;;;;2.33;2.13;;;23.90;63.40;;;26.71;41.46;100467.53;5053871;28;20255;-57
2023/07/15 06:27:16;;;;;;;3.83;2.90;;;24.00;63.10;;;26.78;41.27;100474.22;5053749;28;20197;-56
2023/07/15 06:29:43;;;;;;;5.10;2.90;;;24.10;62.70;;;26.84;41.24;100473.06;5053193;28;20221;-59
2023/07/15 06:32:11;;;;;;;3.77;2.80;;;24.20;62.70;;;26.97;41.20;100476.16;5046612;28;20197;-60
2023/07/15 06:34:39;;;;;;;5.30;2.60;;;24.30;62.50;;;27.04;40.96;100454.97;5053092;28;20276;-59
2023/07/15 06:37:06;;;;;;;2.63;2.43;;;24.40;62.20;;;27.14;41.20;100461.06;5053454;28;20336;-58
2023/07/15 06:39:33;;;;;;;4.73;2.37;;;24.50;62.00;;;27.29;40.75;100454.66;5053345;28;20701;-60
2023/07/15 06:42:00;;;;;;;3.30;2.67;;;24.60;62.00;;;27.39;40.63;100457.22;5053380;28;20654;-58
2023/07/15 06:44:27;;;;;;;3.97;2.50;;;24.70;61.50;;;27.51;40.33;100458.41;5052224;28;20297;-58
2023/07/15 06:46:54;;;;;;;3.10;2.73;;;24.80;61.50;;;27.63;40.15;100449.84;5053027;28;20197;-60
2023/07/15 06:49:21;;;;;;;2.60;2.40;;;24.90;60.80;;;27.70;40.03;100452.97;5035157;28;20264;-60
2023/07/15 06:51:50;;;;;;;3.77;2.70;;;25.10;60.70;;;27.85;39.83;100449.22;5033621;28;20562;-56
2023/07/15 06:54:17;;;;;;;3.20;2.60;;;25.10;60.30;;;28.03;40.07;100445.69;5032079;28;20198;-60
2023/07/15 06:56:44;;;;;;;3.03;2.50;;;25.30;60.50;;;28.21;38.79;100452.97;5033381;28;20197;-56
2023/07/15 06:59:11;;;;;;;2.83;2.40;;;25.40;59.30;;;28.28;38.17;100457.97;5032829;28;20210;-58
2023/07/15 07:01:38;;;;;;;2.60;2.40;;;25.50;58.30;;;28.45;38.05;100452.78;5031841;28;20210;-59
2023/07/15 07:04:05;;;;;;;4.07;2.20;;;25.70;58.10;;;28.61;37.48;100454.13;5045945;28;20255;-59
2023/07/15 07:06:32;;;;;;;2.27;2.00;;;25.80;57.20;;;28.76;36.95;100464.69;5052956;28;20227;-58
2023/07/15 07:09:01;;;;;;;2.20;2.00;;;26.00;56.50;;;28.88;36.28;100446.00;5052671;28;20297;-59
2023/07/15 07:11:27;;;;;;;3.27;2.00;;;26.10;55.60;;;29.00;35.39;100449.00;5053044;28;20218;-59
2023/07/15 07:13:54;;;;;;;3.30;2.33;;;26.30;54.50;;;29.19;35.80;100446.97;5040163;28;20276;-58
2023/07/15 07:16:21;;;;;;;5.63;2.57;;;26.40;54.60;;;29.18;34.90;100434.53;5047905;28;20198;-58
2023/07/15 07:18:48;;;;;;;2.43;2.00;;;26.50;53.00;;;29.27;35.02;100438.13;5052773;28;20196;-55
2023/07/15 07:21:16;;;;;;;3.50;2.40;;;26.60;52.80;;;29.39;34.68;100438.38;5053390;28;20186;-56
2023/07/15 07:23:43;;;;;;;2.70;2.20;;;26.80;52.60;;;29.51;34.91;100437.81;5056207;28;20530;-58
2023/07/15 07:26:11;;;;;;;2.37;2.17;;;26.90;52.60;;;29.58;33.97;100438.19;5056987;28;20189;-59
2023/07/15 07:28:41;;;;;;;5.37;2.20;;;27.00;51.70;;;29.63;34.05;100421.81;5056269;28;20198;-61
2023/07/15 07:31:09;;;;;;;3.43;2.17;;;27.10;51.20;;;29.74;33.76;100430.50;5056689;28;20304;-58
2023/07/15 07:33:38;;;;;;;2.40;2.20;;;27.20;51.20;;;29.88;34.45;100428.56;5055114;28;20206;-59
2023/07/15 07:36:05;;;;;;;3.93;2.10;;;27.30;51.20;;;29.98;33.23;100431.78;5056524;28;20196;-59
2023/07/15 07:38:32;;;;;;;2.53;2.17;;;27.40;50.50;;;30.09;33.71;100426.91;5056635;28;20243;-60
2023/07/15 07:41:04;;;;;;;2.40;2.20;;;27.50;50.10;;;30.14;32.93;100418.63;5056776;28;20227;-58
2023/07/15 07:43:33;;;;;;;2.10;1.97;;;27.60;50.00;;;30.18;33.49;100422.31;5054411;28;20280;-59
2023/07/15 07:46:01;;;;;;;2.50;2.30;;;27.70;49.80;;;30.26;33.11;100420.78;5036698;28;20201;-63
2023/07/15 07:48:28;;;;;;;2.63;2.20;;;27.70;49.60;;;30.35;32.71;100419.72;5036444;28;20218;-59
2023/07/15 07:50:56;;;;;;;3.13;2.30;;;27.80;49.60;;;30.43;33.00;100427.09;5036253;28;20305;-60
2023/07/15 07:53:23;;;;;;;2.47;2.27;;;27.90;48.90;;;30.54;32.31;100439.31;5036815;28;20198;-58
2023/07/15 07:55:51;;;;;;;2.53;2.10;;;28.00;48.80;;;30.68;32.48;100441.91;5036157;28;20734;-58
2023/07/15 07:58:18;;;;;;;3.77;2.23;;;28.10;49.20;;;30.86;32.78;100450.91;5036071;28;20187;-57
2023/07/15 08:00:46;;;;;;;4.67;2.13;;;28.20;49.10;;;30.90;31.98;100435.59;5035551;28;20206;-59
2023/07/15 08:03:14;;;;;;;3.80;1.90;;;28.30;48.40;;;31.03;32.95;100434.63;5041765;28;20196;-58
2023/07/15 08:05:43;;;;;;;6.13;2.33;;;28.40;49.10;;;31.18;31.54;100442.34;5056086;28;20194;-60
2023/07/15 08:08:11;;;;;;;6.17;2.80;;;28.50;48.20;;;31.23;31.53;100439.47;5056064;28;20277;-57
2023/07/15 08:10:39;;;;;;;2.93;2.33;;;28.50;47.00;;;31.20;31.58;100437.38;5055648;28;20682;-56
2023/07/15 08:13:07;;;;;;;3.80;2.67;;;28.60;46.60;;;31.27;31.61;100435.00;5051846;28;20215;-59
2023/07/15 08:15:35;;;;;;;3.80;2.40;;;28.70;46.60;;;31.57;30.97;100439.50;5044213;28;20193;-58
2023/07/15 08:18:05;;;;;;;3.33;2.10;;;28.70;46.30;;;32.30;29.62;100443.06;5056084;28;20194;-56
2023/07/15 08:20:33;;;;;;;2.70;2.27;;;29.00;46.10;;;33.22;28.92;100440.19;5055604;28;20209;-57
2023/07/15 08:23:01;;;;;;;2.03;1.80;;;29.30;45.70;;;34.28;27.63;100432.31;5055263;28;20654;-59
2023/07/15 08:25:29;;;;;;;3.63;2.57;;;29.80;44.90;;;35.05;26.30;100439.50;5055533;28;20630;-58
2023/07/15 08:27:56;;;;;;;2.55;2.20;;;30.30;42.80;;;35.83;25.71;100443.34;5055804;28;20535;-57
2023/07/15 08:30:24;;;;;;;3.33;2.63;;;30.90;41.50;;;36.49;24.88;100440.00;5055402;28;20260;-59
2023/07/15 08:32:51;;;;;;;3.92;2.20;;;31.50;41.30;;;37.36;24.06;100454.16;5054029;28;20194;-59
2023/07/15 08:35:20;;;;;;;3.60;2.42;;;32.10;39.80;;;38.06;22.94;100446.50;5034073;28;20544;-59
2023/07/15 08:37:48;;;;;;;3.15;2.80;;;32.70;38.40;;;38.91;21.89;100448.75;5035849;28;20682;-58
2023/07/15 08:40:23;;;;;;;4.82;2.25;;;33.30;37.40;;;39.11;21.50;100455.69;5042784;28;20214;-58
2023/07/15 08:42:50;;;;;;;7.53;3.10;;;33.70;35.20;;;39.54;21.10;100468.06;5037186;28;20277;-58
2023/07/15 08:45:19;;;;;;;4.20;2.65;;;34.20;34.50;;;39.79;20.37;100469.19;5035515;28;20225;-58
2023/07/15 08:47:47;;;;;;;2.55;2.35;;;34.50;33.30;;;39.79;20.14;100463.69;5035263;28;20197;-60
2023/07/15 08:50:17;;;;;;;6.03;2.58;;;34.70;32.90;;;40.29;20.64;100461.41;5034962;28;20281;-55
2023/07/15 08:52:46;;;;;;;3.45;2.40;;;35.10;33.10;;;40.98;19.46;100460.41;5035480;28;20691;-57
2023/07/15 08:55:13;;;;;;;2.88;2.40;;;35.40;31.90;;;41.43;19.28;100474.84;5055275;28;20682;-59
2023/07/15 08:57:40;;;;;;;4.78;2.53;;;35.70;31.40;;;41.74;18.70;100471.41;5054788;28;20193;-58
2023/07/15 09:00:10;;;;;;;4.85;2.45;;;36.00;30.50;;;41.93;18.41;100461.97;5054221;28;20214;-58
2023/07/15 09:02:37;;;;;;;2.70;2.50;;;36.30;29.90;;;41.69;19.16;100469.03;5054677;28;20194;-57
2023/07/15 09:05:08;;;;;;;3.85;2.45;;;36.50;30.00;;;41.41;18.84;100471.69;5035504;28;20197;-58
2023/07/15 09:07:49;;;;;;;2.70;2.45;;;36.60;29.80;;;41.60;18.66;100471.34;5035200;28;20241;-58
2023/07/15 09:10:17;;;;;;;2.40;2.20;;;36.60;29.60;;;41.72;18.86;100473.78;5034661;28;20748;-59
2023/07/15 09:12:46;;;;;;;2.40;2.08;;;36.60;29.70;;;41.86;18.43;100468.28;5035260;28;20222;-56
2023/07/15 09:15:14;;;;;;;3.00;2.70;;;36.70;29.70;;;41.86;18.81;100467.50;5040118;28;20531;-58
2023/07/15 09:17:51;;;;;;;2.60;2.40;;;36.80;29.40;;;41.44;18.13;100462.63;5054843;28;20185;-57
2023/07/15 09:20:20;;;;;;;3.05;2.30;;;36.80;29.10;;;40.77;19.74;100457.44;5051894;28;20512;-59
2023/07/15 09:22:52;;;;;;;4.65;2.60;;;36.70;29.40;;;40.50;19.60;100458.84;5035280;28;20186;-58
2023/07/15 09:25:22;;;;;;;2.50;2.00;;;36.40;29.70;;;40.15;19.98;100455.78;5035015;28;20198;-58
2023/07/15 09:27:50;;;;;;;4.88;2.38;;;36.20;29.90;;;40.20;20.50;100449.91;5034450;28;20533;-58
2023/07/15 09:30:19;;;;;;;2.30;2.10;;;36.20;30.50;;;40.61;20.00;100459.72;5032937;28;20317;-59
2023/07/15 09:32:47;;;;;;;2.97;2.40;;;36.20;30.70;;;40.56;20.00;100454.53;5034176;28;20513;-61
2023/07/15 09:35:15;;;;;;;5.28;2.72;;;36.20;30.50;;;40.26;20.25;100460.22;5053533;28;20194;-57
2023/07/15 09:37:46;;;;;;;2.20;2.05;;;36.00;30.60;;;40.48;20.18;100444.66;5053598;28;20217;-59
2023/07/15 09:40:13;;;;;;;2.25;2.15;;;36.00;30.50;;;40.54;19.68;100454.13;5053780;28;20271;-58
2023/07/15 09:42:52;;;;;;;3.70;2.45;;;35.90;31.00;;;40.18;20.42;100471.56;5053744;28;20178;-59
2023/07/15 09:45:34;;;;;;;2.95;2.13;;;35.90;30.60;;;40.17;20.86;100467.22;5034275;28;20229;-58
2023/07/15 09:48:04;;;;;;;3.90;2.38;;;35.80;30.80;;;40.37;20.41;100455.56;5034252;28;20228;-60
2023/07/15 09:50:33;;;;;;;2.53;2.33;;;35.70;30.90;;;40.79;20.26;100457.88;5033672;28;20226;-57
2023/07/15 09:53:02;;;;;;;3.08;2.53;;;35.90;31.30;;;40.58;20.67;100463.25;5034514;28;20218;-59
2023/07/15 09:55:32;;;;;;;2.80;2.50;;;36.10;31.30;;;40.71;20.66;100472.81;5053709;28;20585;-56
2023/07/15 09:58:09;;;;;;;2.92;2.65;;;36.20;31.50;;;41.20;20.11;100470.34;5052991;28;20201;-58
2023/07/15 10:00:45;;;;;;;3.67;2.35;;;36.30;31.60;;;41.49;19.53;100470.50;5053270;28;20674;-56
2023/07/15 10:03:22;;;;;;;2.55;2.35;;;36.30;30.90;;;42.08;19.08;100478.19;5051331;28;20212;-59
2023/07/15 10:05:50;;;;;;;3.25;2.47;;;36.60;30.80;;;42.01;18.89;100469.88;5034223;28;20210;-57
2023/07/15 10:08:18;;;;;;;2.47;2.28;;;36.90;30.20;;;41.56;19.78;100487.13;5033348;28;20187;-58
2023/07/15 10:10:45;;;;;;;2.42;2.22;;;37.00;30.00;;;41.25;19.60;100487.78;5033400;28;20230;-59
2023/07/15 10:13:14;;;;;;;4.75;2.40;;;36.90;29.60;;;41.22;19.71;100486.56;5035814;28;20190;-58
2023/07/15 10:15:44;;;;;;;2.40;2.20;;;36.80;29.80;;;41.46;19.61;100477.59;5053342;28;20194;-59
2023/07/15 10:18:13;;;;;;;3.05;2.05;;;36.80;30.10;;;42.37;19.16;100488.13;5036192;28;20346;-59